Time;durP1;ratioP1;P1;durP2;ratioP2;P2;SDS_P1;SDS_P2;PMS_P1;PMS_P2;Temp;Humidity;BMP_temperature;BMP_pressure;BME280_temperature;BME280_humidity;BME280_pressure;Samples;Min_cycle;Max_cycle;Signal;HPM_P1;HPM_P2
2022/09/18 00:02:03;;;;;;;0.30;0.30;;;9.90;99.90;;;;;;5013615;28;20172;-69
2022/09/18 00:04:29;;;;;;;0.60;0.60;;;9.90;99.90;;;;;;5013611;28;20559;-69
2022/09/18 00:06:55;;;;;;;0.70;0.70;;;9.90;99.90;;;;;;5013604;28;20176;-71
2022/09/18 00:09:21;;;;;;;0.53;0.53;;;9.90;99.90;;;;;;5017345;28;20194;-69
2022/09/18 00:11:49;;;;;;;0.40;0.40;;;10.00;99.90;;;;;;5015922;28;20985;-70
2022/09/18 00:14:21;;;;;;;0.40;0.40;;;10.10;99.90;;;;;;5017052;28;20433;-70
2022/09/18 00:16:47;;;;;;;0.40;0.40;;;10.00;99.90;;;;;;5017213;28;20214;-69
2022/09/18 00:19:14;;;;;;;0.60;0.60;;;10.00;99.90;;;;;;5017058;28;20279;-70
2022/09/18 00:21:45;;;;;;;1.38;0.55;;;10.10;99.90;;;;;;5017072;28;20230;-70
2022/09/18 00:24:11;;;;;;;1.38;1.27;;;10.10;99.90;;;;;;5015770;28;20178;-69
2022/09/18 00:26:37;;;;;;;0.43;0.43;;;10.10;99.90;;;;;;5017050;28;20176;-70
2022/09/18 00:29:04;;;;;;;2.47;0.52;;;10.20;99.90;;;;;;5016865;28;20191;-69
2022/09/18 00:31:34;;;;;;;0.30;0.30;;;10.10;99.90;;;;;;5016848;28;20652;-71
2022/09/18 00:34:02;;;;;;;0.30;0.30;;;10.10;99.90;;;;;;5016964;28;20168;-70
2022/09/18 00:36:28;;;;;;;0.68;0.40;;;10.10;99.90;;;;;;5016671;28;20235;-69
2022/09/18 00:38:55;;;;;;;0.30;0.30;;;10.10;99.90;;;;;;5017105;28;20561;-70
2022/09/18 00:41:24;;;;;;;0.70;0.70;;;10.00;99.90;;;;;;5016626;28;20539;-70
2022/09/18 00:43:57;;;;;;;0.30;0.30;;;10.00;99.90;;;;;;5016884;28;20168;-70
2022/09/18 00:46:30;;;;;;;0.60;0.60;;;10.00;99.90;;;;;;5016893;28;20172;-69
2022/09/18 00:49:16;;;;;;;0.50;0.50;;;10.60;99.90;;;;;;5016671;28;20195;-70
2022/09/18 00:51:44;;;;;;;0.45;0.45;;;10.00;99.90;;;;;;5016400;28;20172;-70
2022/09/18 00:54:29;;;;;;;3.90;1.90;;;10.00;99.90;;;;;;5016588;28;20521;-69
2022/09/18 00:56:59;;;;;;;0.30;0.30;;;9.90;99.90;;;;;;5016539;28;20203;-71
2022/09/18 00:59:28;;;;;;;0.40;0.40;;;9.90;99.90;;;;;;5016304;28;20195;-70
2022/09/18 01:01:55;;;;;;;0.60;0.60;;;9.90;99.90;;;;;;5016217;28;20222;-68
2022/09/18 01:04:21;;;;;;;0.30;0.30;;;9.90;99.90;;;;;;5016368;28;20238;-69
2022/09/18 01:06:52;;;;;;;0.57;0.52;;;9.90;99.90;;;;;;5016329;28;20577;-70
2022/09/18 01:09:41;;;;;;;0.30;0.30;;;10.00;99.90;;;;;;5016289;28;20243;-71
2022/09/18 01:12:27;;;;;;;0.30;0.30;;;9.90;99.90;;;;;;5016181;28;20175;-70
2022/09/18 01:14:59;;;;;;;1.25;1.15;;;9.90;99.90;;;;;;5016074;28;20233;-71
2022/09/18 01:18:03;;;;;;;0.60;0.60;;;9.90;99.90;;;;;;5016142;28;20294;-70
2022/09/18 01:21:04;;;;;;;0.30;0.30;;;9.90;99.90;;;;;;4971509;28;20298;-71
2022/09/18 01:24:05;;;;;;;0.30;0.30;;;9.80;99.90;;;;;;5016111;28;20179;-69
2022/09/18 01:26:59;;;;;;;0.30;0.30;;;9.70;99.90;;;;;;5016051;28;20555;-71
2022/09/18 01:29:24;;;;;;;0.50;0.50;;;9.60;99.90;;;;;;5012537;28;20211;-71
2022/09/18 01:32:14;;;;;;;0.60;0.60;;;9.50;99.90;;;;;;5016069;28;20673;-69
2022/09/18 01:35:00;;;;;;;0.40;0.40;;;9.40;99.90;;;;;;5015923;28;20246;-70
2022/09/18 01:37:58;;;;;;;0.55;0.55;;;9.30;99.90;;;;;;5014972;28;20226;-70
2022/09/18 01:40:39;;;;;;;1.60;0.50;;;9.20;99.90;;;;;;5015397;28;20378;-70
2022/09/18 01:43:08;;;;;;;0.40;0.40;;;9.10;99.90;;;;;;5015721;28;20221;-70
2022/09/18 01:45:42;;;;;;;0.40;0.40;;;9.00;99.90;;;;;;5015552;28;20205;-71
2022/09/18 01:48:13;;;;;;;0.40;0.40;;;8.90;99.90;;;;;;5015854;28;20180;-69
2022/09/18 01:50:45;;;;;;;0.55;0.55;;;8.80;99.90;;;;;;5015509;28;20246;-70
2022/09/18 01:53:19;;;;;;;0.50;0.50;;;8.50;99.90;;;;;;5015578;28;20167;-70
2022/09/18 01:55:52;;;;;;;0.77;0.77;;;8.80;99.90;;;;;;5015725;28;20544;-69
2022/09/18 01:58:21;;;;;;;0.40;0.40;;;8.90;99.90;;;;;;5015832;28;20185;-70
2022/09/18 02:00:53;;;;;;;0.40;0.40;;;8.40;99.90;;;;;;5015107;28;20170;-69
2022/09/18 02:03:29;;;;;;;0.30;0.30;;;8.90;99.90;;;;;;5015453;28;20166;-70
2022/09/18 02:06:13;;;;;;;0.70;0.70;;;8.70;99.90;;;;;;5015343;28;20182;-70
2022/09/18 02:08:47;;;;;;;0.40;0.40;;;8.70;99.90;;;;;;5015484;28;20662;-69
2022/09/18 02:11:15;;;;;;;0.43;0.43;;;8.70;99.90;;;;;;5015108;28;20183;-70
2022/09/18 02:13:55;;;;;;;0.57;0.40;;;8.60;99.90;;;;;;5015176;28;20168;-70
2022/09/18 02:16:45;;;;;;;0.70;0.70;;;8.60;99.90;;;;;;5015081;28;20228;-70
2022/09/18 02:19:43;;;;;;;2.35;2.25;;;8.60;99.90;;;;;;5005705;28;20226;-69
2022/09/18 02:22:14;;;;;;;0.35;0.35;;;8.60;99.90;;;;;;5015148;28;20175;-70
2022/09/18 02:24:42;;;;;;;0.50;0.50;;;8.60;99.90;;;;;;5015010;28;20170;-68
2022/09/18 02:27:10;;;;;;;0.40;0.40;;;8.60;99.90;;;;;;5014698;28;20210;-69
2022/09/18 02:29:36;;;;;;;0.75;0.73;;;8.00;99.90;;;;;;5014378;28;20691;-69
2022/09/18 02:32:03;;;;;;;0.80;0.80;;;8.50;99.90;;;;;;5013390;28;20190;-70
2022/09/18 02:34:30;;;;;;;0.30;0.30;;;8.50;99.90;;;;;;5014660;28;20179;-70
2022/09/18 02:37:04;;;;;;;0.40;0.40;;;8.50;99.90;;;;;;5014711;28;20226;-70
2022/09/18 02:39:59;;;;;;;0.60;0.60;;;8.50;99.90;;;;;;5014611;28;20730;-69
2022/09/18 02:42:42;;;;;;;0.30;0.30;;;8.40;99.90;;;;;;4974365;28;20256;-69
2022/09/18 02:45:38;;;;;;;0.38;0.38;;;8.40;99.90;;;;;;5014563;28;20198;-69
2022/09/18 02:48:38;;;;;;;1.85;0.60;;;8.40;99.90;;;;;;5014878;28;20244;-70
2022/09/18 02:51:47;;;;;;;0.40;0.40;;;8.40;99.90;;;;;;5003789;28;20247;-70
2022/09/18 02:54:24;;;;;;;0.60;0.60;;;8.40;99.90;;;;;;5014268;28;20170;-70
2022/09/18 02:57:01;;;;;;;0.40;0.40;;;8.40;99.90;;;;;;5014276;28;20221;-70
2022/09/18 02:59:45;;;;;;;0.80;0.80;;;8.50;99.90;;;;;;5014134;28;20267;-69
2022/09/18 03:02:11;;;;;;;1.88;1.77;;;8.50;99.90;;;;;;5014240;28;20538;-69
2022/09/18 03:04:39;;;;;;;0.55;0.55;;;8.50;99.90;;;;;;5012874;28;20183;-70
2022/09/18 03:07:05;;;;;;;0.30;0.30;;;8.60;99.90;;;;;;5014131;28;20178;-70
2022/09/18 03:09:33;;;;;;;0.40;0.40;;;8.70;99.90;;;;;;5013989;28;20222;-69
2022/09/18 03:12:00;;;;;;;0.40;0.40;;;8.70;99.90;;;;;;5014236;28;20414;-69
2022/09/18 03:14:26;;;;;;;0.57;0.52;;;8.60;99.90;;;;;;5013817;28;20620;-71
2022/09/18 03:16:52;;;;;;;0.40;0.40;;;8.70;99.90;;;;;;5013908;28;20285;-71
2022/09/18 03:19:18;;;;;;;0.30;0.30;;;8.70;99.90;;;;;;5014062;28;20453;-70
2022/09/18 03:21:44;;;;;;;0.60;0.57;;;8.70;99.90;;;;;;5013804;28;20567;-69
2022/09/18 03:24:10;;;;;;;0.38;0.38;;;8.70;99.90;;;;;;5013947;28;20177;-68
2022/09/18 03:26:36;;;;;;;0.30;0.30;;;8.80;99.90;;;;;;5013981;28;20179;-69
2022/09/18 03:29:05;;;;;;;0.40;0.40;;;8.80;99.90;;;;;;5013881;28;20186;-70
2022/09/18 03:31:31;;;;;;;0.40;0.40;;;8.80;99.90;;;;;;5013523;28;20236;-70
2022/09/18 03:33:57;;;;;;;0.30;0.30;;;8.80;99.90;;;;;;5013770;28;20178;-70
2022/09/18 03:36:22;;;;;;;0.80;0.70;;;8.80;99.90;;;;;;5013872;28;20202;-70
2022/09/18 03:38:48;;;;;;;0.40;0.40;;;8.80;99.90;;;;;;5013618;28;20191;-69
2022/09/18 03:41:13;;;;;;;0.43;0.43;;;8.80;99.90;;;;;;5013855;28;20174;-70
2022/09/18 03:43:39;;;;;;;0.40;0.40;;;8.80;99.90;;;;;;5016568;28;20166;-71
2022/09/18 03:46:05;;;;;;;0.40;0.40;;;8.90;99.90;;;;;;5017923;28;20206;-70
2022/09/18 03:48:31;;;;;;;0.40;0.40;;;;;;;;;;5017772;28;20183;-70
2022/09/18 03:50:56;;;;;;;0.73;0.73;;;8.90;99.90;;;;;;5017544;28;20264;-70
2022/09/18 03:53:22;;;;;;;0.33;0.33;;;8.90;99.90;;;;;;5017722;28;20408;-70
2022/09/18 03:55:49;;;;;;;0.30;0.30;;;8.80;99.90;;;;;;5017684;28;20198;-70
2022/09/18 03:58:15;;;;;;;0.40;0.40;;;8.70;99.90;;;;;;5017564;28;20391;-69
2022/09/18 04:00:40;;;;;;;0.37;0.37;;;8.90;99.90;;;;;;5016052;28;20695;-69
2022/09/18 04:03:06;;;;;;;0.40;0.40;;;8.90;99.90;;;;;;5017695;28;20213;-70
2022/09/18 04:05:32;;;;;;;0.40;0.40;;;8.90;99.90;;;;;;5017765;28;20461;-69
2022/09/18 04:07:58;;;;;;;0.30;0.30;;;8.90;99.90;;;;;;5017596;28;20410;-70
2022/09/18 04:10:25;;;;;;;0.40;0.40;;;8.90;99.90;;;;;;5017161;28;20207;-70
2022/09/18 04:12:52;;;;;;;0.40;0.40;;;8.80;99.90;;;;;;5016188;28;20496;-69
2022/09/18 04:15:18;;;;;;;0.40;0.40;;;8.80;99.90;;;;;;5017017;28;20534;-69
2022/09/18 04:17:44;;;;;;;0.30;0.30;;;8.70;99.90;;;;;;5017107;28;20625;-69
2022/09/18 04:20:10;;;;;;;0.30;0.30;;;8.80;99.90;;;;;;5016918;28;20687;-69
2022/09/18 04:22:36;;;;;;;0.32;0.32;;;8.60;99.90;;;;;;5017323;28;20176;-70
2022/09/18 04:25:03;;;;;;;0.40;0.40;;;8.40;99.90;;;;;;5017190;28;20176;-71
2022/09/18 04:27:29;;;;;;;0.75;0.75;;;8.80;99.90;;;;;;5017208;28;20175;-70
2022/09/18 04:29:55;;;;;;;0.40;0.40;;;8.40;99.90;;;;;;5016707;28;20209;-69
2022/09/18 04:32:20;;;;;;;0.30;0.30;;;8.50;99.90;;;;;;5016939;28;20221;-71
2022/09/18 04:34:46;;;;;;;0.30;0.30;;;8.70;99.90;;;;;;5016961;28;20174;-70
2022/09/18 04:37:12;;;;;;;0.40;0.40;;;;;;;;;;5016867;28;20278;-70
2022/09/18 04:39:37;;;;;;;0.30;0.30;;;8.20;99.90;;;;;;5016800;28;20198;-70
2022/09/18 04:42:04;;;;;;;0.30;0.30;;;8.40;99.90;;;;;;5016909;28;20437;-70
2022/09/18 04:44:30;;;;;;;0.50;0.50;;;8.40;99.90;;;;;;5016560;28;20580;-69
2022/09/18 04:46:56;;;;;;;0.40;0.40;;;8.30;99.90;;;;;;5016665;28;20208;-70
2022/09/18 04:49:22;;;;;;;1.02;1.02;;;8.30;99.90;;;;;;5016721;28;20539;-70
2022/09/18 04:51:47;;;;;;;0.30;0.30;;;8.30;99.90;;;;;;5016494;28;20615;-70
2022/09/18 04:54:13;;;;;;;0.30;0.30;;;8.20;99.90;;;;;;5015529;28;20253;-70
2022/09/18 04:56:40;;;;;;;0.30;0.30;;;8.30;99.90;;;;;;5016577;28;20198;-68
2022/09/18 04:59:06;;;;;;;0.30;0.30;;;8.10;99.90;;;;;;5016778;28;20290;-68
2022/09/18 05:01:32;;;;;;;0.30;0.30;;;8.20;99.90;;;;;;5016260;28;20677;-71
2022/09/18 05:03:58;;;;;;;0.38;0.38;;;8.10;99.90;;;;;;5016387;28;20209;-71
2022/09/18 05:06:23;;;;;;;0.30;0.30;;;8.10;99.90;;;;;;5016429;28;20214;-70
2022/09/18 05:08:49;;;;;;;0.60;0.60;;;8.10;99.90;;;;;;5016339;28;20202;-71
2022/09/18 05:11:15;;;;;;;0.30;0.30;;;8.00;99.90;;;;;;5016007;28;20316;-70
2022/09/18 05:13:42;;;;;;;0.43;0.43;;;7.70;99.90;;;;;;5015968;28;20170;-69
2022/09/18 05:16:08;;;;;;;0.40;0.40;;;7.80;99.90;;;;;;5016297;28;20555;-70
2022/09/18 05:18:34;;;;;;;0.60;0.60;;;7.80;99.90;;;;;;5016089;28;20240;-70
2022/09/18 05:21:03;;;;;;;0.70;0.70;;;7.90;99.90;;;;;;5015982;28;20187;-71
2022/09/18 05:23:29;;;;;;;0.30;0.30;;;7.90;99.90;;;;;;5016121;28;20171;-71
2022/09/18 05:25:54;;;;;;;4.87;3.07;;;7.60;99.90;;;;;;5015870;28;20187;-71
2022/09/18 05:28:20;;;;;;;2.00;1.90;;;8.00;99.90;;;;;;5015812;28;20216;-70
2022/09/18 05:30:46;;;;;;;0.90;0.80;;;7.70;99.90;;;;;;5015861;28;20177;-71
2022/09/18 05:33:12;;;;;;;1.40;1.30;;;7.90;99.90;;;;;;5015787;28;20184;-71
2022/09/18 05:35:38;;;;;;;1.35;1.20;;;7.80;99.90;;;;;;5015785;28;20666;-72
2022/09/18 05:38:04;;;;;;;0.98;0.98;;;7.80;99.90;;;;;;5016290;28;20183;-72
2022/09/18 05:40:36;;;;;;;2.67;2.50;;;8.10;99.90;;;;;;5015410;28;20630;-72
2022/09/18 05:43:02;;;;;;;2.92;2.75;;;7.80;99.90;;;;;;5015604;28;20542;-70
2022/09/18 05:45:28;;;;;;;2.15;2.05;;;8.00;99.90;;;;;;5014770;28;20226;-70
2022/09/18 05:47:56;;;;;;;3.03;1.77;;;7.80;99.90;;;;;;5013020;28;20171;-69
2022/09/18 05:50:24;;;;;;;2.22;0.80;;;8.00;99.90;;;;;;5014520;28;20766;-70
2022/09/18 05:53:28;;;;;;;0.50;0.50;;;8.00;99.90;;;;;;5014952;28;20213;-72
2022/09/18 05:55:54;;;;;;;1.13;1.02;;;8.10;99.90;;;;;;4934013;29;20208;-72
2022/09/18 05:58:41;;;;;;;2.83;2.67;;;8.00;99.90;;;;;;4936198;29;20181;-70
2022/09/18 06:01:06;;;;;;;4.75;4.50;;;8.20;99.90;;;;;;4983133;28;20757;-70
2022/09/18 06:03:32;;;;;;;15.47;2.53;;;8.10;99.90;;;;;;5013760;28;20221;-72
2022/09/18 06:05:58;;;;;;;10.27;5.10;;;8.30;99.90;;;;;;5015252;28;20246;-70
2022/09/18 06:08:23;;;;;;;6.73;4.33;;;8.40;99.90;;;;;;5015279;28;20568;-70
2022/09/18 06:10:49;;;;;;;1.63;0.90;;;8.50;99.90;;;;;;5015291;28;20681;-69
2022/09/18 06:13:17;;;;;;;1.70;1.67;;;8.50;99.90;;;;;;5015523;28;20181;-71
2022/09/18 06:15:48;;;;;;;0.70;0.70;;;8.40;99.90;;;;;;5015422;28;20532;-70
2022/09/18 06:18:14;;;;;;;0.85;0.85;;;8.30;99.90;;;;;;5014258;28;20521;-72
2022/09/18 06:20:43;;;;;;;0.50;0.50;;;8.00;99.90;;;;;;5013173;28;20700;-70
2022/09/18 06:23:09;;;;;;;0.77;0.77;;;8.00;99.90;;;;;;5014809;28;20176;-70
2022/09/18 06:25:35;;;;;;;0.73;0.67;;;;;;;;;;5014839;28;20253;-70
2022/09/18 06:28:02;;;;;;;0.73;0.73;;;8.10;99.90;;;;;;5014489;28;20430;-70
2022/09/18 06:30:30;;;;;;;0.40;0.40;;;8.40;99.90;;;;;;5014478;28;20542;-69
2022/09/18 06:33:06;;;;;;;0.30;0.30;;;8.50;99.90;;;;;;5014807;28;20164;-71
2022/09/18 06:35:33;;;;;;;0.70;0.70;;;8.40;99.90;;;;;;5014644;28;20207;-71
2022/09/18 06:38:03;;;;;;;0.88;0.88;;;8.60;99.90;;;;;;5014565;28;20168;-71
2022/09/18 06:40:30;;;;;;;0.30;0.30;;;8.80;99.90;;;;;;5014303;28;20187;-70
2022/09/18 06:42:56;;;;;;;1.52;1.42;;;9.00;99.90;;;;;;5014653;28;20237;-71
2022/09/18 06:45:26;;;;;;;0.70;0.70;;;9.20;99.90;;;;;;5014462;28;20255;-68
2022/09/18 06:47:54;;;;;;;0.30;0.30;;;9.50;99.90;;;;;;5014370;28;20247;-69
2022/09/18 06:50:21;;;;;;;0.65;0.65;;;10.00;99.90;;;;;;5014272;28;20216;-71
2022/09/18 06:52:48;;;;;;;1.15;1.05;;;9.90;99.90;;;;;;5014668;28;20243;-70
2022/09/18 06:55:14;;;;;;;0.40;0.40;;;10.10;99.90;;;;;;5014441;28;20168;-69
2022/09/18 06:57:40;;;;;;;0.40;0.40;;;10.70;99.90;;;;;;5014173;28;20179;-70
2022/09/18 07:00:07;;;;;;;0.40;0.40;;;10.40;99.90;;;;;;5013593;28;20198;-68
2022/09/18 07:02:33;;;;;;;0.40;0.40;;;10.80;99.90;;;;;;5013983;28;20696;-71
2022/09/18 07:04:59;;;;;;;0.40;0.40;;;;;;;;;;5014197;28;20206;-68
2022/09/18 07:07:25;;;;;;;0.63;0.40;;;11.10;99.90;;;;;;5014157;28;20191;-70
2022/09/18 07:09:51;;;;;;;0.30;0.30;;;;;;;;;;5013809;28;20422;-70
2022/09/18 07:12:17;;;;;;;0.30;0.30;;;11.10;98.70;;;;;;5014026;28;20406;-70
2022/09/18 07:14:42;;;;;;;0.53;0.53;;;12.50;99.90;;;;;;5013938;28;20442;-70
2022/09/18 07:17:10;;;;;;;1.13;0.50;;;12.30;96.90;;;;;;5013348;28;20214;-69
2022/09/18 07:19:36;;;;;;;0.53;0.40;;;13.10;99.90;;;;;;5013697;28;20544;-71
2022/09/18 07:22:02;;;;;;;0.40;0.40;;;13.00;96.20;;;;;;5014035;28;20417;-69
2022/09/18 07:24:28;;;;;;;0.60;0.60;;;12.80;99.90;;;;;;5014060;28;20403;-70
2022/09/18 07:26:54;;;;;;;0.40;0.40;;;12.30;99.90;;;;;;5013939;28;20175;-69
2022/09/18 07:29:20;;;;;;;0.30;0.30;;;12.20;99.90;;;;;;5013983;28;20437;-71
2022/09/18 07:31:46;;;;;;;0.30;0.30;;;11.60;99.90;;;;;;5013721;28;20560;-70
2022/09/18 07:34:12;;;;;;;1.13;1.13;;;11.80;97.20;;;;;;5012596;28;20928;-70
2022/09/18 07:36:38;;;;;;;0.30;0.30;;;12.00;98.40;;;;;;5013906;28;20464;-68
2022/09/18 07:39:04;;;;;;;0.40;0.40;;;12.30;97.60;;;;;;5013842;28;20195;-70
2022/09/18 07:41:30;;;;;;;0.70;0.70;;;12.50;97.10;;;;;;5012290;28;20176;-69
2022/09/18 07:43:56;;;;;;;0.60;0.60;;;13.00;99.90;;;;;;5013634;28;20406;-69
2022/09/18 07:46:21;;;;;;;0.40;0.40;;;12.90;95.80;;;;;;5013723;28;20412;-69
2022/09/18 07:48:47;;;;;;;0.40;0.40;;;13.30;95.70;;;;;;5013609;28;20198;-70
2022/09/18 07:51:13;;;;;;;0.73;0.73;;;13.90;99.90;;;;;;5013629;28;20233;-71
2022/09/18 07:53:39;;;;;;;1.60;1.13;;;13.90;94.80;;;;;;5012506;28;20225;-69
2022/09/18 07:56:09;;;;;;;0.60;0.60;;;13.80;99.90;;;;;;5013651;28;20557;-71
2022/09/18 07:58:36;;;;;;;0.40;0.40;;;13.40;99.90;;;;;;5013614;28;20465;-70
2022/09/18 08:01:02;;;;;;;0.60;0.60;;;13.30;94.10;;;;;;5013238;28;20421;-69
2022/09/18 08:03:28;;;;;;;0.30;0.30;;;13.00;99.90;;;;;;5013615;28;20403;-69
2022/09/18 08:05:54;;;;;;;0.40;0.40;;;;;;;;;;5013582;28;20488;-71
2022/09/18 08:08:20;;;;;;;0.53;0.53;;;12.60;99.90;;;;;;5013375;28;20438;-70
2022/09/18 08:10:46;;;;;;;0.40;0.40;;;12.50;99.90;;;;;;5013523;28;20409;-71
2022/09/18 08:13:12;;;;;;;0.33;0.33;;;12.70;94.70;;;;;;5013445;28;20585;-68
2022/09/18 08:15:39;;;;;;;0.37;0.37;;;12.90;99.90;;;;;;5013329;28;20209;-68
2022/09/18 08:18:06;;;;;;;0.70;0.63;;;12.70;96.30;;;;;;5013426;28;20226;-71
2022/09/18 08:20:35;;;;;;;0.47;0.47;;;12.70;94.90;;;;;;5013107;28;20487;-71
2022/09/18 08:23:03;;;;;;;0.40;0.40;;;12.60;96.10;;;;;;5013519;28;20772;-71
2022/09/18 08:25:29;;;;;;;0.40;0.40;;;13.20;99.90;;;;;;5013315;28;20406;-70
2022/09/18 08:28:01;;;;;;;0.70;0.70;;;14.10;94.40;;;;;;5013679;28;20941;-70
2022/09/18 08:30:28;;;;;;;0.30;0.30;;;14.00;94.70;;;;;;5016798;28;20209;-70
2022/09/18 08:33:01;;;;;;;0.40;0.40;;;14.90;99.90;;;;;;5017095;28;20452;-70
2022/09/18 08:35:28;;;;;;;0.40;0.40;;;15.00;99.90;;;;;;5016992;28;20757;-69
2022/09/18 08:37:54;;;;;;;1.73;0.83;;;15.40;99.90;;;;;;5017063;28;20410;-69
2022/09/18 08:40:25;;;;;;;0.40;0.40;;;15.70;90.70;;;;;;5016673;28;20810;-70
2022/09/18 08:43:12;;;;;;;0.30;0.30;;;16.80;99.90;;;;;;5016882;28;20406;-71
2022/09/18 08:46:06;;;;;;;0.40;0.40;;;17.40;99.90;;;;;;5016897;28;20411;-69
2022/09/18 08:48:55;;;;;;;0.70;0.60;;;17.20;86.80;;;;;;5016536;28;20435;-71
2022/09/18 08:51:33;;;;;;;0.30;0.30;;;17.40;85.10;;;;;;5016488;28;20486;-71
2022/09/18 08:54:15;;;;;;;0.67;0.60;;;17.20;99.90;;;;;;5016513;28;20457;-71
2022/09/18 08:56:42;;;;;;;1.80;0.93;;;17.10;99.90;;;;;;5016375;28;20457;-71
2022/09/18 08:59:15;;;;;;;0.50;0.50;;;18.40;96.80;;;;;;5016681;28;20445;-70
2022/09/18 09:02:09;;;;;;;0.47;0.47;;;18.50;86.10;;;;;;5016444;28;20460;-71
2022/09/18 09:04:35;;;;;;;0.30;0.30;;;20.60;81.00;;;;;;5002538;28;20437;-70
2022/09/18 09:07:04;;;;;;;0.30;0.30;;;22.60;72.90;;;;;;5016215;28;20414;-71
2022/09/18 09:09:41;;;;;;;0.37;0.37;;;24.00;67.00;;;;;;5016201;28;20187;-69
2022/09/18 09:12:25;;;;;;;0.30;0.30;;;24.80;58.80;;;;;;5016315;28;20413;-71
2022/09/18 09:15:24;;;;;;;0.30;0.30;;;25.00;55.60;;;;;;5016038;28;20466;-71
2022/09/18 09:18:01;;;;;;;0.40;0.40;;;24.00;55.90;;;;;;5016388;28;20786;-70
2022/09/18 09:20:35;;;;;;;0.30;0.30;;;23.30;55.80;;;;;;5016020;28;20508;-71
2022/09/18 09:23:04;;;;;;;0.40;0.40;;;22.60;57.10;;;;;;5016183;28;20405;-72
2022/09/18 09:25:43;;;;;;;1.33;0.60;;;23.30;56.80;;;;;;5016163;28;20395;-70
2022/09/18 09:28:19;;;;;;;0.40;0.40;;;24.20;76.30;;;;;;5016358;28;20390;-71
2022/09/18 09:30:53;;;;;;;0.40;0.40;;;24.60;54.60;;;;;;5014569;28;20907;-70
2022/09/18 09:33:46;;;;;;;0.30;0.30;;;24.60;53.30;;;;;;5015934;28;20398;-71
2022/09/18 09:36:14;;;;;;;0.30;0.30;;;24.90;56.20;;;;;;5015744;28;20446;-69
2022/09/18 09:38:47;;;;;;;0.40;0.40;;;24.60;53.70;;;;;;5015827;28;20837;-70
2022/09/18 09:41:31;;;;;;;0.30;0.30;;;24.50;53.00;;;;;;5013842;28;20418;-71
2022/09/18 09:44:17;;;;;;;0.30;0.30;;;24.20;52.70;;;;;;5015860;28;20751;-72
2022/09/18 09:47:18;;;;;;;0.40;0.40;;;23.40;53.10;;;;;;5015856;28;20433;-72
2022/09/18 09:50:02;;;;;;;0.30;0.30;;;23.60;54.00;;;;;;5015331;28;21025;-70
2022/09/18 09:52:30;;;;;;;0.50;0.50;;;23.10;52.20;;;;;;5015680;28;20423;-70
2022/09/18 09:55:00;;;;;;;0.33;0.33;;;23.70;55.00;;;;;;5015549;28;20437;-71
2022/09/18 09:57:50;;;;;;;0.43;0.43;;;23.60;52.60;;;;;;5015415;28;20501;-71
2022/09/18 10:00:18;;;;;;;0.30;0.30;;;22.10;52.70;;;;;;5015150;28;20460;-69
2022/09/18 10:02:49;;;;;;;0.30;0.30;;;21.40;56.40;;;;;;5015467;28;20464;-71
2022/09/18 10:05:33;;;;;;;0.60;0.60;;;21.90;56.00;;;;;;5015382;28;20403;-70
2022/09/18 10:08:13;;;;;;;0.30;0.30;;;21.60;56.90;;;;;;5015372;28;20395;-71
2022/09/18 10:10:46;;;;;;;0.30;0.30;;;21.20;58.50;;;;;;5015240;28;20446;-69
2022/09/18 10:13:25;;;;;;;0.70;0.40;;;20.60;58.40;;;;;;5015299;28;20765;-71
2022/09/18 10:16:01;;;;;;;0.40;0.40;;;20.10;60.30;;;;;;5014938;28;20966;-71
2022/09/18 10:18:35;;;;;;;0.60;0.60;;;18.80;88.30;;;;;;5014976;28;20404;-71
2022/09/18 10:21:15;;;;;;;0.40;0.40;;;18.60;60.80;;;;;;5014860;28;20455;-71
2022/09/18 10:24:08;;;;;;;0.30;0.30;;;18.20;63.50;;;;;;5015112;28;20483;-70
2022/09/18 10:26:50;;;;;;;0.30;0.30;;;18.10;63.30;;;;;;5015116;28;20462;-69
2022/09/18 10:29:17;;;;;;;1.27;0.80;;;18.20;64.50;;;;;;5014717;28;20431;-69
2022/09/18 10:31:49;;;;;;;0.30;0.30;;;17.90;83.50;;;;;;5015132;28;20496;-69
2022/09/18 10:34:41;;;;;;;0.30;0.30;;;18.10;65.20;;;;;;5014852;28;20408;-71
2022/09/18 10:37:16;;;;;;;0.40;0.40;;;17.80;62.30;;;;;;5014739;28;20482;-70
2022/09/18 10:39:52;;;;;;;0.40;0.40;;;17.80;92.40;;;;;;5014365;28;20422;-72
2022/09/18 10:42:22;;;;;;;0.93;0.47;;;17.70;70.30;;;;;;5014685;28;20540;-71
2022/09/18 10:44:52;;;;;;;0.30;0.30;;;17.80;92.30;;;;;;5014672;28;20904;-71
2022/09/18 10:47:24;;;;;;;0.30;0.30;;;17.80;65.50;;;;;;5014511;28;20411;-69
2022/09/18 10:49:50;;;;;;;0.50;0.50;;;18.00;91.00;;;;;;5014192;28;20805;-70
2022/09/18 10:52:35;;;;;;;0.40;0.40;;;17.80;64.80;;;;;;5013761;28;20407;-71
2022/09/18 10:55:06;;;;;;;5.20;0.63;;;18.00;63.10;;;;;;5014576;28;20251;-71
2022/09/18 10:57:34;;;;;;;1.03;0.70;;;18.10;60.60;;;;;;5013009;28;20485;-70
2022/09/18 11:00:03;;;;;;;1.90;0.50;;;18.20;80.60;;;;;;5014017;28;20850;-71
2022/09/18 11:02:38;;;;;;;0.30;0.30;;;18.10;59.90;;;;;;5014199;28;20407;-69
2022/09/18 11:05:12;;;;;;;0.33;0.33;;;18.20;66.00;;;;;;5014482;28;20412;-69
2022/09/18 11:07:49;;;;;;;0.77;0.40;;;18.40;60.80;;;;;;5014322;28;20413;-71
2022/09/18 11:10:18;;;;;;;0.30;0.30;;;18.20;60.90;;;;;;5013893;28;20437;-71
2022/09/18 11:12:50;;;;;;;0.80;0.80;;;18.00;63.00;;;;;;5014102;28;20445;-71
2022/09/18 11:15:18;;;;;;;0.33;0.33;;;18.00;64.40;;;;;;5013913;28;20431;-71
2022/09/18 11:17:52;;;;;;;0.30;0.30;;;17.80;62.90;;;;;;5014110;28;20907;-70
2022/09/18 11:20:32;;;;;;;0.30;0.30;;;17.60;85.10;;;;;;5010859;28;20421;-72
2022/09/18 11:23:28;;;;;;;0.30;0.30;;;17.70;91.20;;;;;;5011123;28;20839;-69
2022/09/18 11:26:18;;;;;;;0.30;0.30;;;17.60;92.20;;;;;;5011446;28;20431;-69
2022/09/18 11:29:01;;;;;;;0.50;0.50;;;17.30;65.60;;;;;;5013185;28;20484;-72
2022/09/18 11:31:44;;;;;;;0.40;0.40;;;16.30;93.80;;;;;;5013567;28;20487;-69
2022/09/18 11:34:21;;;;;;;0.40;0.40;;;16.70;92.90;;;;;;5014057;28;20757;-70
2022/09/18 11:36:50;;;;;;;0.40;0.40;;;16.40;94.90;;;;;;5013861;28;20446;-71
2022/09/18 11:39:21;;;;;;;0.30;0.30;;;16.70;72.20;;;;;;5013857;28;20524;-71
2022/09/18 11:41:49;;;;;;;0.40;0.40;;;16.60;94.10;;;;;;5013619;28;20883;-71
2022/09/18 11:44:21;;;;;;;0.40;0.40;;;16.70;69.70;;;;;;5014022;28;20411;-71
2022/09/18 11:47:08;;;;;;;0.40;0.40;;;16.80;93.90;;;;;;5013872;28;20876;-71
2022/09/18 11:49:40;;;;;;;0.30;0.30;;;16.90;94.10;;;;;;5013934;28;20846;-69
2022/09/18 11:52:29;;;;;;;0.40;0.40;;;17.10;71.40;;;;;;5013751;28;20410;-70
2022/09/18 11:55:02;;;;;;;0.40;0.40;;;17.50;92.80;;;;;;5013616;28;20407;-71
2022/09/18 11:57:38;;;;;;;0.40;0.40;;;17.60;67.60;;;;;;5013703;28;20962;-68
2022/09/18 12:00:12;;;;;;;0.40;0.40;;;17.60;63.10;;;;;;5013334;28;20410;-70
2022/09/18 12:02:57;;;;;;;0.40;0.40;;;17.40;91.80;;;;;;5013081;28;20406;-71
2022/09/18 12:05:26;;;;;;;0.50;0.50;;;16.80;91.50;;;;;;5016835;28;20521;-70
2022/09/18 12:08:30;;;;;;;0.40;0.40;;;17.10;93.10;;;;;;5017446;28;20410;-69
2022/09/18 12:11:17;;;;;;;0.40;0.40;;;17.20;93.50;;;;;;5017274;28;20518;-71
2022/09/18 12:14:08;;;;;;;0.40;0.40;;;17.20;64.60;;;;;;5017312;28;20407;-70
2022/09/18 12:16:46;;;;;;;0.40;0.40;;;17.40;68.80;;;;;;5017126;28;20500;-71
2022/09/18 12:19:24;;;;;;;0.40;0.40;;;17.40;63.40;;;;;;5017192;28;20451;-70
2022/09/18 12:22:01;;;;;;;0.30;0.30;;;17.00;63.60;;;;;;5017038;28;20406;-70
2022/09/18 12:24:28;;;;;;;0.30;0.30;;;16.10;91.70;;;;;;5017336;28;20838;-71
2022/09/18 12:27:22;;;;;;;1.17;0.50;;;16.00;92.50;;;;;;5017071;28;20406;-69
2022/09/18 12:30:09;;;;;;;0.30;0.30;;;16.40;92.30;;;;;;5016791;28;20437;-70
2022/09/18 12:33:16;;;;;;;3.80;0.50;;;16.50;65.60;;;;;;5017104;28;20406;-71
2022/09/18 12:36:30;;;;;;;0.40;0.40;;;17.50;92.20;;;;;;5017078;28;20417;-70
2022/09/18 12:39:17;;;;;;;0.40;0.40;;;17.50;91.60;;;;;;4946670;28;20430;-68
2022/09/18 12:42:08;;;;;;;0.40;0.40;;;17.40;92.90;;;;;;5016746;28;20461;-70
2022/09/18 12:44:34;;;;;;;0.30;0.30;;;17.30;91.60;;;;;;5016907;28;20482;-72
2022/09/18 12:47:32;;;;;;;0.30;0.30;;;17.60;91.20;;;;;;5016950;28;20797;-68
2022/09/18 12:49:58;;;;;;;0.40;0.40;;;17.20;63.00;;;;;;4973041;28;20211;-71
2022/09/18 12:52:36;;;;;;;0.50;0.50;;;16.60;62.80;;;;;;5016627;28;20409;-68
2022/09/18 12:55:25;;;;;;;0.40;0.40;;;16.60;63.40;;;;;;5016701;28;20267;-69
2022/09/18 12:58:09;;;;;;;0.40;0.40;;;16.50;92.60;;;;;;5016619;28;20464;-69
2022/09/18 13:00:37;;;;;;;0.30;0.30;;;16.60;67.30;;;;;;5016248;28;20477;-69
2022/09/18 13:03:06;;;;;;;0.63;0.63;;;16.20;86.90;;;;;;5016391;28;20946;-69
2022/09/18 13:05:42;;;;;;;0.83;0.83;;;16.50;64.90;;;;;;5016490;28;20402;-69
2022/09/18 13:08:28;;;;;;;0.30;0.30;;;16.50;65.20;;;;;;5015023;28;20946;-70
2022/09/18 13:11:02;;;;;;;0.30;0.30;;;16.20;90.70;;;;;;5016645;28;20875;-68
2022/09/18 13:13:53;;;;;;;0.40;0.40;;;16.40;84.80;;;;;;5016398;28;20415;-68
2022/09/18 13:16:46;;;;;;;0.40;0.40;;;16.10;64.30;;;;;;5015517;28;20488;-69
2022/09/18 13:19:21;;;;;;;0.30;0.30;;;16.10;64.80;;;;;;5016223;28;20471;-70
2022/09/18 13:21:50;;;;;;;0.40;0.40;;;15.80;67.90;;;;;;5015929;28;20393;-70
2022/09/18 13:24:28;;;;;;;0.40;0.40;;;15.80;70.30;;;;;;5016101;28;20965;-68